Time;durP1;ratioP1;P1;durP2;ratioP2;P2;SDS_P1;SDS_P2;PMS_P1;PMS_P2;Temp;Humidity;BMP_temperature;BMP_pressure;BME280_temperature;BME280_humidity;BME280_pressure;Samples;Min_cycle;Max_cycle;Signal;HPM_P1;HPM_P2
2022/10/08 00:01:15;;;;;;;41.30;19.30;;;;;;;10.69;nan;94267.25;4858243;29;20041;-58
2022/10/08 00:03:45;;;;;;;40.75;19.67;;;;;;;10.59;nan;94276.38;4875877;29;20053;-59
2022/10/08 00:06:16;;;;;;;41.90;20.27;;;;;;;10.51;nan;94270.16;4876373;29;20393;-60
2022/10/08 00:08:48;;;;;;;45.95;20.27;;;;;;;10.43;nan;94262.41;4877313;29;20053;-59
2022/10/08 00:11:18;;;;;;;43.20;20.25;;;;;;;10.41;nan;94267.53;4876281;29;20369;-60
2022/10/08 00:13:49;;;;;;;45.72;20.42;;;;;;;10.41;nan;94270.28;4876182;29;20052;-59
2022/10/08 00:16:21;;;;;;;43.78;20.00;;;;;;;10.37;nan;94256.59;4860483;29;20048;-58
2022/10/08 00:18:50;;;;;;;44.60;19.97;;;;;;;10.36;nan;94264.03;4885113;29;20057;-59
2022/10/08 00:21:23;;;;;;;45.22;20.05;;;;;;;10.38;nan;94261.66;4870330;29;20410;-58
2022/10/08 00:23:51;;;;;;;43.67;20.08;;;;;;;10.38;nan;94267.16;4874256;29;20051;-61
2022/10/08 00:26:22;;;;;;;44.92;19.83;;;;;;;10.40;nan;94263.97;4860605;29;20041;-58
2022/10/08 00:28:50;;;;;;;44.00;19.60;;;;;;;10.37;nan;94260.09;4876412;29;20371;-58
2022/10/08 00:31:21;;;;;;;43.77;20.10;;;;;;;10.34;nan;94260.94;4876786;29;20055;-58
2022/10/08 00:33:55;;;;;;;40.20;19.35;;;;;;;10.18;nan;94261.41;4876402;29;20520;-60
2022/10/08 00:36:25;;;;;;;43.22;20.10;;;;;;;10.18;nan;94255.94;4876711;29;20055;-59
2022/10/08 00:38:57;;;;;;;42.65;19.17;;;;;;;10.16;nan;94260.25;4876251;29;20064;-58
2022/10/08 00:41:27;;;;;;;42.75;19.83;;;;;;;10.10;nan;94256.38;4876886;29;20053;-59
2022/10/08 00:43:57;;;;;;;44.13;19.60;;;;;;;10.06;nan;94258.38;4876256;29;20051;-59
2022/10/08 00:46:34;;;;;;;40.75;18.98;;;;;;;10.00;nan;94255.31;4876528;29;20055;-61
2022/10/08 00:49:03;;;;;;;47.53;21.70;;;;;;;10.01;nan;94259.59;4876008;29;20053;-58
2022/10/08 00:51:32;;;;;;;49.63;20.65;;;;;;;9.98;nan;94255.69;4876669;29;20048;-60
2022/10/08 00:54:01;;;;;;;47.15;20.20;;;;;;;9.96;nan;94249.84;4876173;29;20092;-59
2022/10/08 00:56:30;;;;;;;41.70;19.37;;;;;;;9.99;nan;94248.25;4876579;29;20049;-60
2022/10/08 00:58:57;;;;;;;46.42;19.35;;;;;;;9.97;nan;94251.38;4876054;29;20402;-59
2022/10/08 01:01:24;;;;;;;42.42;19.55;;;;;;;10.00;nan;94255.31;4876238;29;20067;-59
2022/10/08 01:03:50;;;;;;;45.90;19.30;;;;;;;9.98;nan;94247.47;4859514;29;20055;-58
2022/10/08 01:06:26;;;;;;;43.72;19.40;;;;;;;9.95;nan;94245.53;4876114;29;20434;-60
2022/10/08 01:09:08;;;;;;;40.93;19.20;;;;;;;9.95;nan;94245.53;4875691;29;20065;-58
2022/10/08 01:11:34;;;;;;;42.90;20.98;;;;;;;9.99;nan;94249.00;4876334;29;20043;-59
2022/10/08 01:14:19;;;;;;;42.03;20.48;;;;;;;9.99;nan;94248.25;4876006;29;20414;-60
2022/10/08 01:17:23;;;;;;;36.45;18.73;;;;;;;9.96;nan;94243.56;4875762;29;20057;-58
2022/10/08 01:20:17;;;;;;;39.95;18.65;;;;;;;9.98;nan;94236.50;4866633;29;20410;-58
2022/10/08 01:23:13;;;;;;;42.27;19.27;;;;;;;9.97;nan;94229.44;4875661;29;20167;-60
2022/10/08 01:26:03;;;;;;;40.15;18.60;;;;;;;10.01;nan;94229.44;4876226;29;20075;-60
2022/10/08 01:28:33;;;;;;;44.03;19.73;;;;;;;9.97;nan;94226.72;4874981;29;20630;-58
2022/10/08 01:31:05;;;;;;;38.42;18.60;;;;;;;9.93;nan;94231.44;4875762;29;20061;-58
2022/10/08 01:33:39;;;;;;;44.55;19.23;;;;;;;9.85;nan;94231.91;4876020;29;20528;-59
2022/10/08 01:36:09;;;;;;;45.87;19.60;;;;;;;9.77;nan;94220.22;4875512;29;20049;-58
2022/10/08 01:38:43;;;;;;;49.35;21.25;;;;;;;9.79;nan;94223.31;4876012;29;20047;-59
2022/10/08 01:41:13;;;;;;;44.40;20.05;;;;;;;9.83;nan;94224.06;4867767;29;20703;-59
2022/10/08 01:43:47;;;;;;;48.35;20.20;;;;;;;9.82;nan;94219.00;4875892;29;20048;-58
2022/10/08 01:46:22;;;;;;;43.33;19.05;;;;;;;9.85;nan;94226.44;4875101;29;20278;-58
2022/10/08 01:48:52;;;;;;;43.40;19.33;;;;;;;9.73;nan;94216.72;4875440;29;20119;-62
2022/10/08 01:51:33;;;;;;;47.35;19.25;;;;;;;9.70;nan;94214.78;4875866;29;20063;-58
2022/10/08 01:54:07;;;;;;;80.68;20.10;;;;;;;9.69;nan;94219.47;4875470;29;20045;-60
2022/10/08 01:56:37;;;;;;;216.77;22.15;;;;;;;9.56;nan;94221.16;4875883;29;20134;-62
2022/10/08 01:59:09;;;;;;;63.95;19.73;;;;;;;9.62;nan;94218.75;4875448;29;20053;-59
2022/10/08 02:01:57;;;;;;;70.03;19.63;;;;;;;9.63;nan;94223.81;4875783;29;20337;-59
2022/10/08 02:04:33;;;;;;;229.00;20.48;;;;;;;9.50;nan;94214.53;4875001;29;20662;-60
2022/10/08 02:07:04;;;;;;;61.38;19.17;;;;;;;9.63;nan;94218.34;4875119;29;20045;-59
2022/10/08 02:09:36;;;;;;;68.38;19.40;;;;;;;9.66;nan;94220.28;4875508;29;20059;-58
2022/10/08 02:12:03;;;;;;;126.72;21.40;;;;;;;9.49;nan;94213.75;4875251;29;20045;-59
2022/10/08 02:14:33;;;;;;;85.50;20.23;;;;;;;9.44;nan;94216.91;4875723;29;20063;-59
2022/10/08 02:17:40;;;;;;;104.53;19.70;;;;;;;9.42;nan;94213.78;4876969;29;20056;-59
2022/10/08 02:20:22;;;;;;;88.32;21.35;;;;;;;9.34;nan;94212.28;4854484;29;20064;-60
2022/10/08 02:22:57;;;;;;;70.75;19.67;;;;;;;9.43;nan;94212.59;4858659;29;20055;-59
2022/10/08 02:25:51;;;;;;;59.20;18.42;;;;;;;9.47;nan;94212.59;4875665;29;20063;-59
2022/10/08 02:28:25;;;;;;;58.70;17.10;;;;;;;9.34;nan;94218.53;4874684;29;20653;-62
2022/10/08 02:30:58;;;;;;;35.78;16.45;;;;;;;9.31;nan;94213.84;4875110;29;20057;-60
2022/10/08 02:33:31;;;;;;;33.33;16.15;;;;;;;9.38;nan;94215.78;4875332;29;20061;-61
2022/10/08 02:36:01;;;;;;;28.88;15.27;;;;;;;9.49;nan;94218.44;4876637;29;20048;-58
2022/10/08 02:38:34;;;;;;;51.45;16.67;;;;;;;9.52;nan;94206.69;4878958;29;20067;-59
2022/10/08 02:41:03;;;;;;;125.33;17.57;;;;;;;9.36;nan;94209.91;4878538;29;20053;-58
2022/10/08 02:43:33;;;;;;;83.93;18.27;;;;;;;9.23;nan;94211.56;4878965;29;20057;-59
2022/10/08 02:46:10;;;;;;;40.45;17.48;;;;;;;9.31;nan;94213.06;4878606;29;20379;-58
2022/10/08 02:48:41;;;;;;;45.72;18.42;;;;;;;9.42;nan;94216.53;4878876;29;20059;-58
2022/10/08 02:51:12;;;;;;;60.22;18.52;;;;;;;9.44;nan;94221.59;4878369;29;20045;-58
2022/10/08 02:53:40;;;;;;;40.83;17.43;;;;;;;9.44;nan;94213.38;4877798;29;20510;-59
2022/10/08 02:56:16;;;;;;;57.38;17.98;;;;;;;9.39;nan;94212.63;4878270;29;20049;-60
2022/10/08 02:58:44;;;;;;;53.20;18.55;;;;;;;9.51;nan;94216.09;4878923;29;20053;-60
2022/10/08 03:01:17;;;;;;;66.95;17.35;;;;;;;9.46;nan;94214.56;4877812;29;20729;-59
2022/10/08 03:03:53;;;;;;;41.35;17.80;;;;;;;9.46;nan;94224.75;4878061;29;20418;-59
2022/10/08 03:06:20;;;;;;;35.27;17.40;;;;;;;9.52;nan;94223.91;4878606;29;20037;-58
2022/10/08 03:08:49;;;;;;;35.05;16.90;;;;;;;9.50;nan;94220.78;4877748;29;20051;-59
2022/10/08 03:11:16;;;;;;;37.97;17.17;;;;;;;9.49;nan;94223.91;4878371;29;20048;-58
2022/10/08 03:13:47;;;;;;;32.35;16.92;;;;;;;9.55;nan;94220.34;4878323;29;20079;-59
2022/10/08 03:16:17;;;;;;;33.45;17.02;;;;;;;9.64;nan;94221.84;4864685;29;20279;-61
2022/10/08 03:18:44;;;;;;;34.23;16.30;;;;;;;9.57;nan;94225.44;4882887;29;20045;-59
2022/10/08 03:21:12;;;;;;;31.33;16.73;;;;;;;9.47;nan;94227.06;4878239;29;20041;-59
2022/10/08 03:23:39;;;;;;;31.98;16.23;;;;;;;9.55;nan;94225.81;4878490;29;20538;-58
2022/10/08 03:26:06;;;;;;;33.13;16.70;;;;;;;9.52;nan;94221.16;4877688;29;20041;-58
2022/10/08 03:28:33;;;;;;;32.55;16.45;;;;;;;9.40;nan;94213.41;4863289;29;20051;-58
2022/10/08 03:31:04;;;;;;;33.47;16.47;;;;;;;9.39;nan;94217.31;4877615;29;20414;-58
2022/10/08 03:33:32;;;;;;;32.20;15.82;;;;;;;9.40;nan;94219.66;4878097;29;20053;-59
2022/10/08 03:35:59;;;;;;;34.50;16.63;;;;;;;9.43;nan;94225.53;4877851;29;20045;-58
2022/10/08 03:38:26;;;;;;;34.50;17.10;;;;;;;9.37;nan;94230.63;4877904;29;20406;-58
2022/10/08 03:40:55;;;;;;;36.90;16.88;;;;;;;9.26;nan;94221.72;4877548;29;20082;-58
2022/10/08 03:43:23;;;;;;;34.43;16.33;;;;;;;9.25;nan;94226.41;4878020;29;20048;-58
2022/10/08 03:45:53;;;;;;;31.05;15.80;;;;;;;9.29;nan;94226.38;4877051;29;20439;-60
2022/10/08 03:48:21;;;;;;;33.95;16.45;;;;;;;9.18;nan;94223.72;4877734;29;20041;-58
2022/10/08 03:50:52;;;;;;;33.47;16.20;;;;;;;9.26;nan;94227.19;4877320;29;20049;-58
2022/10/08 03:53:20;;;;;;;31.15;15.80;;;;;;;9.26;nan;94227.19;4877595;29;20389;-59
2022/10/08 03:55:47;;;;;;;37.23;16.33;;;;;;;9.27;nan;94228.75;4877433;29;20056;-58
2022/10/08 03:58:14;;;;;;;31.63;15.80;;;;;;;9.28;nan;94230.31;4877373;29;20049;-58
2022/10/08 04:00:41;;;;;;;32.40;15.18;;;;;;;9.31;nan;94222.06;4877571;29;20317;-58
2022/10/08 04:03:09;;;;;;;28.75;15.35;;;;;;;9.32;nan;94226.38;4877055;29;20096;-59
2022/10/08 04:05:36;;;;;;;29.25;15.00;;;;;;;9.34;nan;94224.00;4877499;29;20053;-59
2022/10/08 04:08:02;;;;;;;29.63;14.90;;;;;;;9.24;nan;94218.59;4876936;29;20067;-60
2022/10/08 04:10:29;;;;;;;28.65;14.90;;;;;;;9.38;nan;94229.47;4860695;29;20045;-59
2022/10/08 04:12:56;;;;;;;30.98;15.80;;;;;;;9.38;nan;94227.50;4876892;29;20037;-58
2022/10/08 04:15:22;;;;;;;30.35;14.57;;;;;;;9.47;nan;94227.06;4877365;29;20068;-59
2022/10/08 04:17:49;;;;;;;28.20;15.05;;;;;;;9.53;nan;94225.44;4881890;29;20071;-59
2022/10/08 04:20:16;;;;;;;43.47;16.17;;;;;;;9.51;nan;94219.59;4877484;29;20391;-58
2022/10/08 04:22:43;;;;;;;69.50;16.08;;;;;;;9.37;nan;94223.19;4860722;29;20053;-61
2022/10/08 04:25:10;;;;;;;56.40;16.85;;;;;;;9.32;nan;94218.16;4863266;29;20564;-58
2022/10/08 04:27:36;;;;;;;101.78;17.83;;;;;;;9.32;nan;94218.16;4877159;29;20045;-57
2022/10/08 04:30:04;;;;;;;89.32;18.58;;;;;;;9.40;nan;94211.44;4876587;29;20056;-59
2022/10/08 04:32:32;;;;;;;51.57;16.93;;;;;;;9.49;nan;94221.19;4877123;29;20049;-59
2022/10/08 04:34:59;;;;;;;50.15;17.02;;;;;;;9.53;nan;94217.22;4876522;29;20405;-58
2022/10/08 04:37:25;;;;;;;76.35;17.65;;;;;;;9.42;nan;94219.28;4876938;29;20041;-62
2022/10/08 04:39:52;;;;;;;72.55;18.02;;;;;;;9.38;nan;94224.78;4875394;29;20053;-59
2022/10/08 04:42:19;;;;;;;59.63;18.95;;;;;;;9.38;nan;94227.50;4860191;29;20540;-58
2022/10/08 04:44:46;;;;;;;63.03;18.20;;;;;;;9.49;nan;94223.91;4876470;29;20056;-58
2022/10/08 04:47:12;;;;;;;96.07;18.35;;;;;;;9.16;nan;94229.56;4876554;29;20045;-59
2022/10/08 04:49:39;;;;;;;93.53;20.02;;;;;;;9.30;nan;94223.25;4876878;29;20104;-59
2022/10/08 04:52:06;;;;;;;53.03;19.02;;;;;;;9.46;nan;94219.25;4859852;29;20047;-62
2022/10/08 04:54:33;;;;;;;54.97;18.35;;;;;;;9.54;nan;94229.00;4875509;29;20041;-58
2022/10/08 04:57:00;;;;;;;51.37;18.07;;;;;;;9.45;nan;94225.91;4876426;29;20071;-58
2022/10/08 04:59:26;;;;;;;41.20;17.88;;;;;;;9.48;nan;94223.16;4875986;29;20049;-59
2022/10/08 05:01:55;;;;;;;58.65;17.45;;;;;;;9.47;nan;94221.56;4876100;29;20049;-58
2022/10/08 05:04:22;;;;;;;58.40;18.70;;;;;;;9.45;nan;94231.38;4876704;29;20045;-61
2022/10/08 05:06:49;;;;;;;38.60;17.58;;;;;;;9.37;nan;94231.41;4875839;29;20041;-60
2022/10/08 05:09:16;;;;;;;36.83;16.87;;;;;;;9.47;nan;94226.28;4859644;29;20048;-59
2022/10/08 05:11:43;;;;;;;35.33;18.08;;;;;;;9.41;nan;94234.13;4876397;29;20077;-59
2022/10/08 05:14:09;;;;;;;106.05;17.77;;;;;;;9.45;nan;94237.63;4858922;29;20506;-59
2022/10/08 05:16:36;;;;;;;42.30;17.40;;;;;;;9.48;nan;94238.81;4876352;29;20044;-59
2022/10/08 05:19:03;;;;;;;136.93;20.23;;;;;;;9.33;nan;94241.59;4876998;29;20081;-59
2022/10/08 05:21:31;;;;;;;51.13;18.17;;;;;;;9.39;nan;94241.97;4876115;29;20079;-61
2022/10/08 05:24:03;;;;;;;48.92;19.08;;;;;;;9.52;nan;94234.09;4875645;29;20049;-59
2022/10/08 05:26:33;;;;;;;40.25;18.50;;;;;;;9.60;nan;94241.09;4876244;29;20056;-62
2022/10/08 05:29:20;;;;;;;40.05;17.45;;;;;;;9.67;nan;94241.03;4875207;29;20474;-60
2022/10/08 05:31:46;;;;;;;36.80;17.90;;;;;;;9.70;nan;94244.91;4875591;29;20414;-61
2022/10/08 05:34:14;;;;;;;35.70;17.60;;;;;;;9.70;nan;94244.91;4875917;29;20053;-60
2022/10/08 05:36:41;;;;;;;34.05;16.60;;;;;;;9.77;nan;94242.13;4876312;29;20440;-63
2022/10/08 05:39:09;;;;;;;38.75;19.20;;;;;;;9.88;nan;94245.59;4875530;29;20061;-60
2022/10/08 05:41:36;;;;;;;33.30;16.42;;;;;;;9.86;nan;94250.69;4875928;29;20057;-63
2022/10/08 05:44:04;;;;;;;31.08;15.98;;;;;;;9.94;nan;94248.66;4875343;29;20398;-59
2022/10/08 05:46:32;;;;;;;33.30;16.50;;;;;;;9.95;nan;94251.00;4875652;29;20083;-60
2022/10/08 05:49:01;;;;;;;38.35;16.88;;;;;;;9.94;nan;94249.47;4875321;29;20067;-59
2022/10/08 05:51:29;;;;;;;39.55;18.35;;;;;;;9.96;nan;94251.78;4875976;29;20045;-61
2022/10/08 05:53:58;;;;;;;35.70;17.23;;;;;;;10.03;nan;94259.19;4875618;29;20049;-60
2022/10/08 05:56:26;;;;;;;33.03;16.75;;;;;;;10.15;nan;94262.22;4875648;29;20395;-60
2022/10/08 05:58:53;;;;;;;32.97;17.00;;;;;;;10.22;nan;94260.59;4858842;29;20053;-60
2022/10/08 06:01:26;;;;;;;32.42;16.02;;;;;;;10.22;nan;94260.59;4875858;29;20059;-60
2022/10/08 06:03:58;;;;;;;31.45;15.85;;;;;;;10.13;nan;94267.31;4875369;29;20384;-60
2022/10/08 06:06:28;;;;;;;34.08;17.00;;;;;;;10.12;nan;94262.22;4875957;29;20049;-62
2022/10/08 06:08:57;;;;;;;38.47;16.70;;;;;;;10.25;nan;94260.56;4874899;29;20060;-60
2022/10/08 06:11:25;;;;;;;38.37;16.73;;;;;;;10.22;nan;94266.84;4877788;29;20059;-60
2022/10/08 06:13:53;;;;;;;34.85;16.77;;;;;;;10.37;nan;94267.56;4878895;29;20059;-60
2022/10/08 06:16:21;;;;;;;37.45;17.27;;;;;;;10.37;nan;94268.31;4879446;29;20051;-59
2022/10/08 06:18:48;;;;;;;36.92;16.67;;;;;;;10.35;nan;94269.94;4883999;29;20055;-60
2022/10/08 06:21:18;;;;;;;35.47;16.90;;;;;;;10.53;nan;94275.25;4875993;29;20044;-61
2022/10/08 06:23:47;;;;;;;43.10;16.57;;;;;;;10.54;nan;94268.56;4876531;29;20450;-60
2022/10/08 06:26:16;;;;;;;39.70;17.05;;;;;;;10.38;nan;94275.38;4877792;29;20057;-60
2022/10/08 06:28:44;;;;;;;34.75;17.33;;;;;;;10.45;nan;94276.50;4878948;29;20049;-59
2022/10/08 06:31:11;;;;;;;36.33;16.73;;;;;;;10.61;nan;94271.25;4878060;29;20327;-59
2022/10/08 06:33:38;;;;;;;36.72;16.65;;;;;;;10.65;nan;94288.47;4878848;29;20498;-60
2022/10/08 06:36:07;;;;;;;36.10;17.33;;;;;;;10.76;nan;94285.59;4878084;29;20398;-62
2022/10/08 06:38:34;;;;;;;35.35;16.50;;;;;;;10.88;nan;94293.31;4865670;29;20073;-61
2022/10/08 06:41:00;;;;;;;38.50;15.60;;;;;;;10.99;nan;94288.50;4873793;29;20488;-61
2022/10/08 06:43:28;;;;;;;37.00;15.82;;;;;;;11.20;nan;94292.19;4860831;29;20056;-60
2022/10/08 06:45:58;;;;;;;45.50;16.05;;;;;;;10.92;nan;94285.81;4878501;29;20056;-59
2022/10/08 06:48:26;;;;;;;39.87;16.23;;;;;;;11.04;nan;94306.50;4878868;29;20055;-60
2022/10/08 06:51:00;;;;;;;41.45;16.17;;;;;;;10.83;nan;94301.25;4878305;29;20100;-61
2022/10/08 06:53:29;;;;;;;78.65;19.13;;;;;;;10.60;nan;94297.13;4878808;29;20052;-59
2022/10/08 06:56:01;;;;;;;54.90;18.95;;;;;;;10.69;nan;94302.94;4878112;29;20515;-60
2022/10/08 06:58:28;;;;;;;42.25;18.15;;;;;;;10.94;nan;94304.66;4878725;29;20048;-60
2022/10/08 07:01:09;;;;;;;36.70;16.90;;;;;;;11.08;nan;94301.75;4874667;29;20045;-62
2022/10/08 07:03:36;;;;;;;40.80;17.95;;;;;;;11.26;nan;94312.53;4875246;29;20049;-60
2022/10/08 07:06:06;;;;;;;35.30;17.15;;;;;;;11.50;nan;94305.19;4878270;29;20076;-61
2022/10/08 07:08:34;;;;;;;29.30;15.45;;;;;;;11.65;nan;94310.50;4878253;29;20052;-60
2022/10/08 07:11:08;;;;;;;39.78;16.35;;;;;;;11.42;nan;94309.22;4878292;29;20057;-60
2022/10/08 07:13:37;;;;;;;38.43;17.00;;;;;;;11.45;nan;94316.66;4878413;29;20044;-60
2022/10/08 07:16:25;;;;;;;41.63;18.27;;;;;;;11.49;nan;94317.38;4878116;29;20052;-59
2022/10/08 07:18:53;;;;;;;40.90;18.30;;;;;;;11.36;nan;94316.34;4870334;29;20092;-63
2022/10/08 07:21:21;;;;;;;37.03;17.58;;;;;;;11.42;nan;94308.44;4871841;29;20045;-62
2022/10/08 07:23:49;;;;;;;37.13;17.08;;;;;;;11.78;nan;94314.25;4877683;29;20041;-60
2022/10/08 07:26:18;;;;;;;31.60;15.53;;;;;;;11.63;nan;94321.13;4877114;29;20071;-60
2022/10/08 07:28:51;;;;;;;34.30;17.08;;;;;;;11.55;nan;94317.69;4877710;29;20059;-60
2022/10/08 07:31:21;;;;;;;36.25;17.05;;;;;;;11.66;nan;94317.56;4878191;29;20498;-60
2022/10/08 07:33:48;;;;;;;36.55;17.95;;;;;;;11.85;nan;94321.63;4877469;29;20116;-62
2022/10/08 07:36:21;;;;;;;40.17;18.38;;;;;;;12.06;nan;94318.59;4878173;29;20429;-60
2022/10/08 07:38:55;;;;;;;38.67;18.10;;;;;;;12.26;nan;94320.69;4877184;29;20059;-60
2022/10/08 07:41:23;;;;;;;35.78;18.17;;;;;;;12.48;nan;94321.91;4877864;29;20053;-61
2022/10/08 07:43:54;;;;;;;32.05;16.63;;;;;;;12.48;nan;94318.38;4877012;29;20056;-63
2022/10/08 07:46:21;;;;;;;33.33;16.60;;;;;;;12.37;nan;94321.28;4877811;29;20055;-60
2022/10/08 07:48:49;;;;;;;37.08;17.73;;;;;;;12.14;nan;94320.06;4860691;29;20049;-63
2022/10/08 07:51:18;;;;;;;36.33;17.50;;;;;;;12.41;nan;94316.50;4877665;29;20045;-60
2022/10/08 07:53:45;;;;;;;36.20;18.45;;;;;;;12.76;nan;94306.13;4877088;29;20061;-64
2022/10/08 07:56:14;;;;;;;33.13;16.55;;;;;;;13.07;nan;94303.97;4877505;29;20041;-60
2022/10/08 07:58:42;;;;;;;32.70;16.92;;;;;;;13.21;nan;94311.19;4877645;29;20063;-60
2022/10/08 08:01:14;;;;;;;31.67;15.52;;;;;;;13.20;nan;94304.13;4877460;29;20726;-61
2022/10/08 08:03:42;;;;;;;29.60;14.97;;;;;;;13.24;nan;94302.09;4877570;29;20044;-59
2022/10/08 08:06:14;;;;;;;28.58;15.10;;;;;;;13.35;nan;94305.41;4876652;29;20382;-60
2022/10/08 08:08:44;;;;;;;29.08;15.23;;;;;;;13.40;nan;94304.16;4877012;29;20064;-61
2022/10/08 08:11:13;;;;;;;27.35;15.20;;;;;;;13.65;nan;94314.69;4876663;29;20414;-61
2022/10/08 08:13:41;;;;;;;27.17;14.73;;;;;;;13.76;nan;94309.72;4877471;29;20049;-63
2022/10/08 08:16:16;;;;;;;27.60;15.20;;;;;;;13.87;nan;94317.78;4876638;29;20055;-61
2022/10/08 08:18:45;;;;;;;26.85;14.95;;;;;;;13.46;nan;94319.00;4882633;29;20053;-61
2022/10/08 08:21:18;;;;;;;28.70;15.23;;;;;;;13.56;nan;94312.50;4876432;29;20053;-61
2022/10/08 08:23:47;;;;;;;26.00;14.98;;;;;;;13.21;nan;94324.19;4876338;29;20049;-61
2022/10/08 08:26:20;;;;;;;33.42;17.42;;;;;;;12.71;nan;94323.88;4876876;29;20059;-61
2022/10/08 08:28:52;;;;;;;33.90;17.73;;;;;;;12.53;nan;94320.63;4876782;29;20382;-63
2022/10/08 08:31:25;;;;;;;34.92;17.08;;;;;;;13.27;nan;94322.50;4876944;29;20048;-64
2022/10/08 08:33:55;;;;;;;34.10;16.58;;;;;;;13.27;nan;94325.25;4875282;29;20049;-60
2022/10/08 08:36:27;;;;;;;28.92;15.68;;;;;;;13.39;nan;94330.94;4876615;29;20055;-60
2022/10/08 08:38:55;;;;;;;29.90;15.52;;;;;;;13.81;nan;94329.75;4876318;29;20100;-61
2022/10/08 08:41:25;;;;;;;25.57;15.00;;;;;;;13.70;nan;94327.97;4876994;29;20089;-64
2022/10/08 08:44:00;;;;;;;27.85;14.55;;;;;;;14.09;nan;94333.88;4875837;29;20100;-60
2022/10/08 08:46:31;;;;;;;25.60;13.40;;;;;;;14.56;nan;94333.59;4861556;29;20053;-60
2022/10/08 08:49:04;;;;;;;24.67;13.70;;;;;;;14.40;nan;94334.34;4871401;29;20053;-63
2022/10/08 08:51:31;;;;;;;24.05;12.70;;;;;;;14.54;nan;94342.28;4876433;29;20053;-60
2022/10/08 08:53:58;;;;;;;24.83;13.70;;;;;;;14.19;nan;94344.66;4876063;29;20045;-59
2022/10/08 08:56:25;;;;;;;21.13;12.20;;;;;;;14.53;nan;94346.25;4876499;29;20053;-60
2022/10/08 08:59:03;;;;;;;21.88;12.57;;;;;;;14.59;nan;94346.56;4875537;29;20044;-62
2022/10/08 09:01:41;;;;;;;23.88;12.23;;;;;;;14.84;nan;94350.69;4876152;29;20052;-61
2022/10/08 09:04:21;;;;;;;22.20;12.70;;;;;;;15.24;nan;94353.25;4876291;29;20044;-61
2022/10/08 09:06:51;;;;;;;20.90;10.93;;;;;;;15.46;nan;94353.44;4876058;29;20509;-61
2022/10/08 09:09:37;;;;;;;18.98;10.52;;;;;;;15.75;nan;94348.72;4876085;29;20067;-60
2022/10/08 09:12:19;;;;;;;16.95;9.40;;;;;;;15.00;nan;94344.38;4875898;29;20430;-59
2022/10/08 09:14:52;;;;;;;16.85;9.48;;;;;;;14.09;nan;94337.41;4875635;29;20124;-63
2022/10/08 09:17:26;;;;;;;18.50;9.68;;;;;;;14.35;nan;94343.91;4880549;29;20048;-60
2022/10/08 09:19:53;;;;;;;18.00;10.10;;;;;;;15.31;nan;94333.69;4862574;29;20051;-61
2022/10/08 09:22:24;;;;;;;16.75;9.10;;;;;;;15.39;nan;94335.03;4867689;29;20041;-62
2022/10/08 09:25:06;;;;;;;15.73;7.93;;;;;;;15.23;nan;94330.34;4870918;29;20053;-63
2022/10/08 09:27:43;;;;;;;16.15;7.45;;;;;;;15.34;nan;94341.13;4876148;29;20108;-60
2022/10/08 09:30:30;;;;;;;15.68;7.40;;;;;;;15.19;nan;94340.69;4875111;29;20105;-63
2022/10/08 09:33:00;;;;;;;16.37;7.60;;;;;;;14.88;nan;94338.34;4859523;29;20053;-60
2022/10/08 09:35:27;;;;;;;13.55;7.95;;;;;;;14.74;nan;94345.00;4874808;29;20056;-61
2022/10/08 09:37:55;;;;;;;13.88;8.15;;;;;;;15.09;nan;94352.81;4875362;29;20059;-59
2022/10/08 09:40:24;;;;;;;16.55;8.30;;;;;;;15.31;nan;94350.28;4875969;29;20451;-60
2022/10/08 09:43:10;;;;;;;14.80;8.70;;;;;;;14.53;nan;94351.00;4875210;29;20047;-60
2022/10/08 09:45:41;;;;;;;16.97;9.17;;;;;;;14.44;nan;94356.34;4875572;29;20057;-60
2022/10/08 09:48:27;;;;;;;20.48;11.48;;;;;;;14.53;nan;94362.84;4875420;29;20052;-60
2022/10/08 09:50:59;;;;;;;15.82;8.30;;;;;;;14.57;nan;94371.84;4875263;29;20080;-63
2022/10/08 09:53:39;;;;;;;17.13;8.80;;;;;;;14.67;nan;94361.75;4875967;29;20045;-63
2022/10/08 09:56:07;;;;;;;19.58;7.80;;;;;;;14.62;nan;94367.78;4875417;29;20056;-62
2022/10/08 09:58:47;;;;;;;15.60;7.43;;;;;;;14.63;nan;94372.09;4875796;29;20045;-61
2022/10/08 10:01:16;;;;;;;17.17;8.20;;;;;;;14.47;nan;94378.38;4874783;29;20927;-59
2022/10/08 10:03:54;;;;;;;16.00;7.32;;;;;;;14.35;nan;94371.53;4875620;29;20049;-60
2022/10/08 10:06:33;;;;;;;16.05;7.95;;;;;;;14.30;nan;94369.25;4874804;29;21490;-60
2022/10/08 10:09:09;;;;;;;16.23;8.23;;;;;;;14.65;nan;94368.88;4874901;29;20061;-61
2022/10/08 10:11:48;;;;;;;16.70;7.90;;;;;;;13.89;nan;94370.53;4875675;29;20144;-60
2022/10/08 10:14:24;;;;;;;17.25;7.90;;;;;;;14.21;nan;94366.31;4874389;29;20588;-60
2022/10/08 10:16:58;;;;;;;22.02;8.15;;;;;;;13.85;nan;94360.78;4875859;29;20049;-60
2022/10/08 10:19:31;;;;;;;17.15;7.57;;;;;;;14.20;nan;94364.75;4879027;29;20079;-60
2022/10/08 10:22:22;;;;;;;12.80;7.78;;;;;;;14.32;nan;94361.31;4875190;29;20045;-60
2022/10/08 10:25:00;;;;;;;16.73;8.07;;;;;;;14.37;nan;94371.09;4874934;29;20053;-60
2022/10/08 10:27:34;;;;;;;15.00;7.28;;;;;;;14.21;nan;94360.81;4875315;29;20056;-60
2022/10/08 10:30:01;;;;;;;14.65;7.75;;;;;;;14.41;nan;94359.94;4874685;29;20051;-60
2022/10/08 10:32:34;;;;;;;13.80;7.43;;;;;;;14.69;nan;94356.56;4875483;29;20187;-60
2022/10/08 10:35:13;;;;;;;14.00;7.05;;;;;;;14.72;nan;94354.91;4875112;29;20047;-61
2022/10/08 10:37:47;;;;;;;13.73;7.47;;;;;;;14.70;nan;94360.88;4858915;29;20041;-60
2022/10/08 10:40:32;;;;;;;13.63;6.97;;;;;;;14.49;nan;94353.09;4874404;29;20242;-60
2022/10/08 10:43:16;;;;;;;12.55;6.90;;;;;;;14.64;nan;94348.78;4875016;29;20056;-60
2022/10/08 10:45:50;;;;;;;16.08;6.85;;;;;;;14.54;nan;94360.84;4874869;29;20052;-61
2022/10/08 10:48:17;;;;;;;15.05;6.43;;;;;;;14.27;nan;94353.56;4874492;29;20527;-61
2022/10/08 10:50:50;;;;;;;13.70;6.67;;;;;;;14.55;nan;94352.13;4874936;29;20051;-60
2022/10/08 10:53:39;;;;;;;13.45;6.80;;;;;;;14.39;nan;94346.59;4875583;29;20061;-63
2022/10/08 10:56:16;;;;;;;11.85;6.20;;;;;;;14.31;nan;94350.72;4874670;29;20041;-60
2022/10/08 10:59:04;;;;;;;11.63;6.47;;;;;;;14.28;nan;94346.81;4877545;29;20071;-62
2022/10/08 11:01:43;;;;;;;14.43;6.45;;;;;;;14.30;nan;94346.41;4877668;29;20060;-63
2022/10/08 11:04:51;;;;;;;11.43;6.23;;;;;;;14.55;nan;94349.38;4877831;29;20535;-60
2022/10/08 11:07:29;;;;;;;10.40;5.88;;;;;;;14.46;nan;94351.16;4819561;29;20443;-60
2022/10/08 11:10:18;;;;;;;12.63;6.20;;;;;;;14.76;nan;94341.78;4856846;29;20526;-61
2022/10/08 11:13:16;;;;;;;10.82;5.90;;;;;;;14.80;nan;94361.06;4878227;29;20048;-60
2022/10/08 11:15:50;;;;;;;11.77;5.97;;;;;;;14.86;nan;94351.03;4878246;29;20045;-64
2022/10/08 11:18:34;;;;;;;14.83;6.00;;;;;;;14.85;nan;94355.00;4882934;29;20844;-60
2022/10/08 11:21:16;;;;;;;12.50;5.80;;;;;;;14.82;nan;94347.59;4877380;29;20396;-60
2022/10/08 11:23:57;;;;;;;9.65;6.10;;;;;;;14.74;nan;94353.28;4878436;29;20059;-61
2022/10/08 11:26:37;;;;;;;12.38;6.45;;;;;;;14.29;nan;94345.63;4876929;29;20048;-62
2022/10/08 11:29:26;;;;;;;13.63;6.15;;;;;;;15.06;nan;94348.94;4877216;29;20052;-61
2022/10/08 11:31:53;;;;;;;11.03;6.30;;;;;;;14.54;nan;94364.38;4877641;29;20047;-60
2022/10/08 11:34:28;;;;;;;10.48;6.50;;;;;;;14.28;nan;94359.84;4878030;29;20045;-60
2022/10/08 11:37:23;;;;;;;10.55;5.85;;;;;;;14.85;nan;94353.03;4877442;29;20048;-61
2022/10/08 11:40:05;;;;;;;12.40;5.72;;;;;;;14.82;nan;94364.16;4860832;29;20052;-63
2022/10/08 11:43:01;;;;;;;9.55;5.80;;;;;;;14.76;nan;94358.38;4878123;29;20045;-60
2022/10/08 11:45:29;;;;;;;10.93;5.77;;;;;;;14.65;nan;94358.63;4855259;29;21093;-60
2022/10/08 11:47:58;;;;;;;13.40;6.28;;;;;;;14.70;nan;94354.56;4877225;29;20072;-60
2022/10/08 11:50:24;;;;;;;10.85;5.72;;;;;;;14.81;nan;94352.34;4877717;29;20041;-61
2022/10/08 11:53:00;;;;;;;10.52;5.10;;;;;;;14.94;nan;94358.72;4876989;29;20045;-60
2022/10/08 11:55:31;;;;;;;9.15;5.93;;;;;;;15.18;nan;94362.06;4877593;29;20147;-60
2022/10/08 11:58:02;;;;;;;12.13;5.30;;;;;;;15.00;nan;94361.72;4877041;29;20041;-62
2022/10/08 12:00:45;;;;;;;12.93;5.55;;;;;;;14.84;nan;94358.97;4877500;29;20517;-60
2022/10/08 12:03:21;;;;;;;11.68;5.70;;;;;;;14.88;nan;94357.69;4876577;29;20574;-60